sensor_id;sensor_type;location;lat;lon;timestamp;temperature;humidity
67358;HTU21D;54240;51.096;5.878;2023-03-31T00:00:02;11.04;118.99
67358;HTU21D;54240;51.096;5.878;2023-03-31T00:02:39;11.08;118.99
67358;HTU21D;54240;51.096;5.878;2023-03-31T00:05:08;11.11;118.99
67358;HTU21D;54240;51.096;5.878;2023-03-31T00:07:34;11.14;118.99
67358;HTU21D;54240;51.096;5.878;2023-03-31T00:10:03;11.19;118.99
67358;HTU21D;54240;51.096;5.878;2023-03-31T00:12:29;11.19;118.99
67358;HTU21D;54240;51.096;5.878;2023-03-31T00:14:55;11.22;118.99
67358;HTU21D;54240;51.096;5.878;2023-03-31T00:17:22;11.29;118.99
67358;HTU21D;54240;51.096;5.878;2023-03-31T00:19:47;11.31;118.99
67358;HTU21D;54240;51.096;5.878;2023-03-31T00:22:15;11.37;118.99
67358;HTU21D;54240;51.096;5.878;2023-03-31T00:24:47;11.39;118.99
67358;HTU21D;54240;51.096;5.878;2023-03-31T00:27:13;11.42;118.99
67358;HTU21D;54240;51.096;5.878;2023-03-31T00:29:39;11.44;118.99
67358;HTU21D;54240;51.096;5.878;2023-03-31T00:32:07;11.44;118.99
67358;HTU21D;54240;51.096;5.878;2023-03-31T00:34:33;11.46;118.99
67358;HTU21D;54240;51.096;5.878;2023-03-31T00:37:02;11.46;118.99
67358;HTU21D;54240;51.096;5.878;2023-03-31T00:39:29;11.42;118.99
67358;HTU21D;54240;51.096;5.878;2023-03-31T00:42:03;11.38;118.99
67358;HTU21D;54240;51.096;5.878;2023-03-31T00:44:30;11.31;118.99
67358;HTU21D;54240;51.096;5.878;2023-03-31T00:47:05;11.31;118.99
67358;HTU21D;54240;51.096;5.878;2023-03-31T00:49:46;11.34;118.99
67358;HTU21D;54240;51.096;5.878;2023-03-31T00:52:17;11.37;118.99
67358;HTU21D;54240;51.096;5.878;2023-03-31T00:54:50;11.38;118.99
67358;HTU21D;54240;51.096;5.878;2023-03-31T00:57:19;11.33;118.99
67358;HTU21D;54240;51.096;5.878;2023-03-31T00:59:49;11.33;118.99
67358;HTU21D;54240;51.096;5.878;2023-03-31T01:02:17;11.28;118.99
67358;HTU21D;54240;51.096;5.878;2023-03-31T01:04:51;11.38;118.99
67358;HTU21D;54240;51.096;5.878;2023-03-31T01:07:32;11.38;118.99
67358;HTU21D;54240;51.096;5.878;2023-03-31T01:10:02;11.42;118.99
67358;HTU21D;54240;51.096;5.878;2023-03-31T01:12:33;11.44;118.99
67358;HTU21D;54240;51.096;5.878;2023-03-31T01:15:02;11.47;118.99
67358;HTU21D;54240;51.096;5.878;2023-03-31T01:17:29;11.47;118.99
67358;HTU21D;54240;51.096;5.878;2023-03-31T01:20:44;11.49;118.99
67358;HTU21D;54240;51.096;5.878;2023-03-31T01:35:40;11.29;118.99
67358;HTU21D;54240;51.096;5.878;2023-03-31T01:38:43;11.32;118.99
67358;HTU21D;54240;51.096;5.878;2023-03-31T01:41:37;11.27;118.99
67358;HTU21D;54240;51.096;5.878;2023-03-31T01:46:52;11.23;118.99
67358;HTU21D;54240;51.096;5.878;2023-03-31T01:49:34;11.18;118.99
67358;HTU21D;54240;51.096;5.878;2023-03-31T01:52:22;11.23;118.99
67358;HTU21D;54240;51.096;5.878;2023-03-31T01:55:08;11.17;118.99
67358;HTU21D;54240;51.096;5.878;2023-03-31T01:58:02;11.17;118.99
67358;HTU21D;54240;51.096;5.878;2023-03-31T02:00:32;11.15;118.99
67358;HTU21D;54240;51.096;5.878;2023-03-31T02:03:12;11.17;118.99
67358;HTU21D;54240;51.096;5.878;2023-03-31T02:05:48;11.12;118.99
67358;HTU21D;54240;51.096;5.878;2023-03-31T02:08:30;11.09;118.99
67358;HTU21D;54240;51.096;5.878;2023-03-31T02:10:59;11.12;118.99
67358;HTU21D;54240;51.096;5.878;2023-03-31T02:13:28;11.10;118.99
67358;HTU21D;54240;51.096;5.878;2023-03-31T02:15:59;11.05;118.99
67358;HTU21D;54240;51.096;5.878;2023-03-31T02:18:31;11.09;118.99
67358;HTU21D;54240;51.096;5.878;2023-03-31T02:21:00;11.00;118.99
67358;HTU21D;54240;51.096;5.878;2023-03-31T02:23:28;10.90;118.99
67358;HTU21D;54240;51.096;5.878;2023-03-31T02:26:06;10.97;118.99
67358;HTU21D;54240;51.096;5.878;2023-03-31T02:28:34;11.02;118.99
67358;HTU21D;54240;51.096;5.878;2023-03-31T02:33:39;11.01;118.99
67358;HTU21D;54240;51.096;5.878;2023-03-31T02:36:06;11.05;118.99
67358;HTU21D;54240;51.096;5.878;2023-03-31T02:38:38;11.15;118.99
67358;HTU21D;54240;51.096;5.878;2023-03-31T02:41:06;11.12;118.99
67358;HTU21D;54240;51.096;5.878;2023-03-31T02:43:33;11.14;118.99
67358;HTU21D;54240;51.096;5.878;2023-03-31T02:45:58;11.20;118.99
67358;HTU21D;54240;51.096;5.878;2023-03-31T02:48:52;10.95;118.99
67358;HTU21D;54240;51.096;5.878;2023-03-31T02:51:31;11.08;118.99
67358;HTU21D;54240;51.096;5.878;2023-03-31T02:54:41;11.17;118.99
67358;HTU21D;54240;51.096;5.878;2023-03-31T03:17:01;11.14;118.99
67358;HTU21D;54240;51.096;5.878;2023-03-31T03:19:28;11.16;118.99
67358;HTU21D;54240;51.096;5.878;2023-03-31T03:21:54;11.16;118.99
67358;HTU21D;54240;51.096;5.878;2023-03-31T03:24:20;11.03;118.99
67358;HTU21D;54240;51.096;5.878;2023-03-31T03:26:48;11.14;118.99
67358;HTU21D;54240;51.096;5.878;2023-03-31T03:29:14;11.01;118.99
67358;HTU21D;54240;51.096;5.878;2023-03-31T03:31:41;11.19;118.99
67358;HTU21D;54240;51.096;5.878;2023-03-31T03:34:08;11.14;118.99
67358;HTU21D;54240;51.096;5.878;2023-03-31T03:36:37;11.11;118.99
67358;HTU21D;54240;51.096;5.878;2023-03-31T03:39:05;11.17;118.99
67358;HTU21D;54240;51.096;5.878;2023-03-31T03:41:32;11.18;118.99
67358;HTU21D;54240;51.096;5.878;2023-03-31T03:43:59;11.28;118.99
67358;HTU21D;54240;51.096;5.878;2023-03-31T03:46:25;11.24;118.99
67358;HTU21D;54240;51.096;5.878;2023-03-31T03:48:51;11.29;118.99
67358;HTU21D;54240;51.096;5.878;2023-03-31T03:51:17;11.32;118.99
67358;HTU21D;54240;51.096;5.878;2023-03-31T03:53:43;11.33;118.99
67358;HTU21D;54240;51.096;5.878;2023-03-31T03:56:09;11.36;118.99
67358;HTU21D;54240;51.096;5.878;2023-03-31T03:58:35;11.25;118.99
67358;HTU21D;54240;51.096;5.878;2023-03-31T04:01:01;11.30;118.99
67358;HTU21D;54240;51.096;5.878;2023-03-31T04:03:27;11.32;118.99
67358;HTU21D;54240;51.096;5.878;2023-03-31T04:05:53;11.46;118.99
67358;HTU21D;54240;51.096;5.878;2023-03-31T04:08:19;11.45;118.99
67358;HTU21D;54240;51.096;5.878;2023-03-31T04:10:46;11.34;118.99
67358;HTU21D;54240;51.096;5.878;2023-03-31T04:13:17;11.41;118.99
67358;HTU21D;54240;51.096;5.878;2023-03-31T04:15:44;11.40;118.99
67358;HTU21D;54240;51.096;5.878;2023-03-31T04:18:11;11.43;118.99
67358;HTU21D;54240;51.096;5.878;2023-03-31T04:20:52;11.40;118.99
67358;HTU21D;54240;51.096;5.878;2023-03-31T04:23:35;11.29;118.99
67358;HTU21D;54240;51.096;5.878;2023-03-31T04:26:15;11.46;118.99
67358;HTU21D;54240;51.096;5.878;2023-03-31T04:28:43;11.48;118.99
67358;HTU21D;54240;51.096;5.878;2023-03-31T04:31:13;11.39;118.99
67358;HTU21D;54240;51.096;5.878;2023-03-31T04:33:53;11.53;118.99
67358;HTU21D;54240;51.096;5.878;2023-03-31T04:36:20;11.51;118.99
67358;HTU21D;54240;51.096;5.878;2023-03-31T04:38:48;11.46;118.99
67358;HTU21D;54240;51.096;5.878;2023-03-31T04:41:20;11.59;118.99
67358;HTU21D;54240;51.096;5.878;2023-03-31T04:43:46;11.36;118.99
67358;HTU21D;54240;51.096;5.878;2023-03-31T04:46:12;11.25;118.99
67358;HTU21D;54240;51.096;5.878;2023-03-31T04:48:38;11.26;118.99
67358;HTU21D;54240;51.096;5.878;2023-03-31T04:51:04;11.23;118.99
67358;HTU21D;54240;51.096;5.878;2023-03-31T04:53:30;11.13;118.99
67358;HTU21D;54240;51.096;5.878;2023-03-31T04:55:56;11.28;118.99
67358;HTU21D;54240;51.096;5.878;2023-03-31T04:58:22;11.42;118.99
67358;HTU21D;54240;51.096;5.878;2023-03-31T05:00:49;11.26;118.99
67358;HTU21D;54240;51.096;5.878;2023-03-31T05:03:15;11.38;118.99
67358;HTU21D;54240;51.096;5.878;2023-03-31T05:05:41;11.48;118.99
67358;HTU21D;54240;51.096;5.878;2023-03-31T05:08:07;11.18;118.99
67358;HTU21D;54240;51.096;5.878;2023-03-31T05:10:33;11.08;118.99
67358;HTU21D;54240;51.096;5.878;2023-03-31T05:12:59;10.99;118.99
67358;HTU21D;54240;51.096;5.878;2023-03-31T05:15:25;10.87;118.99
67358;HTU21D;54240;51.096;5.878;2023-03-31T05:17:51;10.87;118.99
67358;HTU21D;54240;51.096;5.878;2023-03-31T05:20:19;10.79;118.99
67358;HTU21D;54240;51.096;5.878;2023-03-31T05:22:45;10.66;118.99
67358;HTU21D;54240;51.096;5.878;2023-03-31T05:25:13;10.51;118.99
67358;HTU21D;54240;51.096;5.878;2023-03-31T05:27:45;10.57;118.99
67358;HTU21D;54240;51.096;5.878;2023-03-31T05:30:15;10.51;118.99
67358;HTU21D;54240;51.096;5.878;2023-03-31T05:32:42;10.52;118.99
67358;HTU21D;54240;51.096;5.878;2023-03-31T05:35:09;10.64;118.99
67358;HTU21D;54240;51.096;5.878;2023-03-31T05:37:35;10.63;118.99
67358;HTU21D;54240;51.096;5.878;2023-03-31T05:40:02;10.67;118.99
67358;HTU21D;54240;51.096;5.878;2023-03-31T05:42:30;10.75;118.99
67358;HTU21D;54240;51.096;5.878;2023-03-31T05:44:55;10.68;118.99
67358;HTU21D;54240;51.096;5.878;2023-03-31T05:47:22;10.62;118.99
67358;HTU21D;54240;51.096;5.878;2023-03-31T05:49:47;10.52;118.99
67358;HTU21D;54240;51.096;5.878;2023-03-31T05:52:13;10.44;118.99
67358;HTU21D;54240;51.096;5.878;2023-03-31T05:54:39;10.42;118.99
67358;HTU21D;54240;51.096;5.878;2023-03-31T05:57:06;10.39;118.99
67358;HTU21D;54240;51.096;5.878;2023-03-31T05:59:32;10.30;118.99
67358;HTU21D;54240;51.096;5.878;2023-03-31T06:02:00;10.22;118.99
67358;HTU21D;54240;51.096;5.878;2023-03-31T06:04:27;10.19;118.99
67358;HTU21D;54240;51.096;5.878;2023-03-31T06:06:53;10.15;118.99
67358;HTU21D;54240;51.096;5.878;2023-03-31T06:09:20;10.16;118.99
67358;HTU21D;54240;51.096;5.878;2023-03-31T06:11:46;10.34;118.99
67358;HTU21D;54240;51.096;5.878;2023-03-31T06:14:12;10.22;118.99
67358;HTU21D;54240;51.096;5.878;2023-03-31T06:16:38;10.40;118.99
67358;HTU21D;54240;51.096;5.878;2023-03-31T06:19:04;10.33;118.99
67358;HTU21D;54240;51.096;5.878;2023-03-31T06:21:30;10.36;118.99
67358;HTU21D;54240;51.096;5.878;2023-03-31T06:23:56;10.38;118.99
67358;HTU21D;54240;51.096;5.878;2023-03-31T06:26:23;10.40;118.99
67358;HTU21D;54240;51.096;5.878;2023-03-31T06:28:49;10.48;118.99
67358;HTU21D;54240;51.096;5.878;2023-03-31T06:31:17;10.58;118.99
67358;HTU21D;54240;51.096;5.878;2023-03-31T06:33:45;10.70;118.99
67358;HTU21D;54240;51.096;5.878;2023-03-31T06:36:13;10.77;118.99
67358;HTU21D;54240;51.096;5.878;2023-03-31T06:38:39;10.73;118.99
67358;HTU21D;54240;51.096;5.878;2023-03-31T06:41:07;10.81;118.99
67358;HTU21D;54240;51.096;5.878;2023-03-31T06:43:33;10.89;118.99
67358;HTU21D;54240;51.096;5.878;2023-03-31T06:46:00;10.90;118.99
67358;HTU21D;54240;51.096;5.878;2023-03-31T06:48:26;10.89;118.99
67358;HTU21D;54240;51.096;5.878;2023-03-31T06:50:53;10.84;118.99
67358;HTU21D;54240;51.096;5.878;2023-03-31T06:53:20;10.93;118.99
67358;HTU21D;54240;51.096;5.878;2023-03-31T06:55:47;10.80;118.99
67358;HTU21D;54240;51.096;5.878;2023-03-31T06:58:13;10.82;118.99
67358;HTU21D;54240;51.096;5.878;2023-03-31T07:00:39;10.94;118.99
67358;HTU21D;54240;51.096;5.878;2023-03-31T07:03:06;10.97;118.99
67358;HTU21D;54240;51.096;5.878;2023-03-31T07:05:34;11.07;118.99
67358;HTU21D;54240;51.096;5.878;2023-03-31T07:08:00;11.18;118.99
67358;HTU21D;54240;51.096;5.878;2023-03-31T07:10:28;11.28;118.99
67358;HTU21D;54240;51.096;5.878;2023-03-31T07:12:55;11.43;118.99
67358;HTU21D;54240;51.096;5.878;2023-03-31T07:15:22;11.42;118.99
67358;HTU21D;54240;51.096;5.878;2023-03-31T07:17:48;11.52;118.99
67358;HTU21D;54240;51.096;5.878;2023-03-31T07:20:17;11.57;118.99
67358;HTU21D;54240;51.096;5.878;2023-03-31T07:22:45;11.71;118.99
67358;HTU21D;54240;51.096;5.878;2023-03-31T07:25:14;11.92;118.99
67358;HTU21D;54240;51.096;5.878;2023-03-31T07:27:40;12.08;118.99
67358;HTU21D;54240;51.096;5.878;2023-03-31T07:30:09;12.16;118.99
67358;HTU21D;54240;51.096;5.878;2023-03-31T07:32:35;12.32;118.99
67358;HTU21D;54240;51.096;5.878;2023-03-31T07:35:09;12.35;118.99
67358;HTU21D;54240;51.096;5.878;2023-03-31T07:37:40;12.36;118.99
67358;HTU21D;54240;51.096;5.878;2023-03-31T07:40:08;12.33;118.99
67358;HTU21D;54240;51.096;5.878;2023-03-31T07:42:34;12.44;118.99
67358;HTU21D;54240;51.096;5.878;2023-03-31T07:45:02;12.59;118.99
67358;HTU21D;54240;51.096;5.878;2023-03-31T07:47:31;12.56;118.99
67358;HTU21D;54240;51.096;5.878;2023-03-31T07:49:57;12.59;118.99
67358;HTU21D;54240;51.096;5.878;2023-03-31T07:52:23;12.78;118.99
67358;HTU21D;54240;51.096;5.878;2023-03-31T07:54:49;12.65;118.99
67358;HTU21D;54240;51.096;5.878;2023-03-31T07:57:16;12.65;118.99
67358;HTU21D;54240;51.096;5.878;2023-03-31T07:59:45;12.72;118.99
67358;HTU21D;54240;51.096;5.878;2023-03-31T08:02:13;12.89;118.99
67358;HTU21D;54240;51.096;5.878;2023-03-31T08:04:39;13.08;118.99
67358;HTU21D;54240;51.096;5.878;2023-03-31T08:07:07;13.11;118.99
67358;HTU21D;54240;51.096;5.878;2023-03-31T08:09:34;13.34;118.99
67358;HTU21D;54240;51.096;5.878;2023-03-31T08:11:59;13.51;118.99
67358;HTU21D;54240;51.096;5.878;2023-03-31T08:14:25;13.41;118.99
67358;HTU21D;54240;51.096;5.878;2023-03-31T08:16:51;13.43;118.99
67358;HTU21D;54240;51.096;5.878;2023-03-31T08:19:20;13.51;118.99
67358;HTU21D;54240;51.096;5.878;2023-03-31T08:21:47;13.59;118.99
67358;HTU21D;54240;51.096;5.878;2023-03-31T08:24:13;13.60;118.99
67358;HTU21D;54240;51.096;5.878;2023-03-31T08:26:40;13.68;118.99
67358;HTU21D;54240;51.096;5.878;2023-03-31T08:29:06;13.65;105.83
67358;HTU21D;54240;51.096;5.878;2023-03-31T08:31:32;13.76;118.33
67358;HTU21D;54240;51.096;5.878;2023-03-31T08:33:58;13.84;118.99
67358;HTU21D;54240;51.096;5.878;2023-03-31T08:36:25;13.88;90.54
67358;HTU21D;54240;51.096;5.878;2023-03-31T08:38:51;13.84;97.76
67358;HTU21D;54240;51.096;5.878;2023-03-31T08:46:50;14.08;53.17
67358;HTU21D;54240;51.096;5.878;2023-03-31T08:49:20;14.11;51.59
67358;HTU21D;54240;51.096;5.878;2023-03-31T08:51:51;14.12;43.02
67358;HTU21D;54240;51.096;5.878;2023-03-31T08:54:33;14.08;19.31
67358;HTU21D;54240;51.096;5.878;2023-03-31T08:57:05;14.07;4.23
67358;HTU21D;54240;51.096;5.878;2023-03-31T08:59:35;14.08;6.06
67358;HTU21D;54240;51.096;5.878;2023-03-31T09:05:04;13.94;12.69
67358;HTU21D;54240;51.096;5.878;2023-03-31T09:07:48;13.97;8.46
67358;HTU21D;54240;51.096;5.878;2023-03-31T09:16:14;14.33;-6.00
67358;HTU21D;54240;51.096;5.878;2023-03-31T09:18:41;14.23;-6.00
67358;HTU21D;54240;51.096;5.878;2023-03-31T09:21:30;14.08;-6.00
67358;HTU21D;54240;51.096;5.878;2023-03-31T09:24:14;14.40;-6.00
67358;HTU21D;54240;51.096;5.878;2023-03-31T09:26:55;14.49;-6.00
67358;HTU21D;54240;51.096;5.878;2023-03-31T09:29:32;14.59;-6.00
67358;HTU21D;54240;51.096;5.878;2023-03-31T09:32:15;14.69;-6.00
67358;HTU21D;54240;51.096;5.878;2023-03-31T09:34:42;15.02;-6.00
67358;HTU21D;54240;51.096;5.878;2023-03-31T09:37:10;15.16;-6.00
67358;HTU21D;54240;51.096;5.878;2023-03-31T09:39:37;15.21;-6.00
67358;HTU21D;54240;51.096;5.878;2023-03-31T09:42:03;15.14;-6.00
67358;HTU21D;54240;51.096;5.878;2023-03-31T09:47:00;14.94;-6.00
67358;HTU21D;54240;51.096;5.878;2023-03-31T09:49:33;14.65;-6.00
67358;HTU21D;54240;51.096;5.878;2023-03-31T09:52:39;14.14;-6.00
67358;HTU21D;54240;51.096;5.878;2023-03-31T09:55:21;13.93;-6.00
67358;HTU21D;54240;51.096;5.878;2023-03-31T09:57:47;13.91;7.18
67358;HTU21D;54240;51.096;5.878;2023-03-31T10:00:17;13.02;118.99
67358;HTU21D;54240;51.096;5.878;2023-03-31T10:03:01;12.87;118.99
67358;HTU21D;54240;51.096;5.878;2023-03-31T10:05:48;12.84;99.12
67358;HTU21D;54240;51.096;5.878;2023-03-31T10:08:28;12.92;50.27
67358;HTU21D;54240;51.096;5.878;2023-03-31T10:11:05;13.11;54.70
67358;HTU21D;54240;51.096;5.878;2023-03-31T10:13:49;13.12;36.22
67358;HTU21D;54240;51.096;5.878;2023-03-31T10:16:34;12.96;36.56
67358;HTU21D;54240;51.096;5.878;2023-03-31T10:19:19;12.93;68.97
67358;HTU21D;54240;51.096;5.878;2023-03-31T10:21:54;12.90;106.72
67358;HTU21D;54240;51.096;5.878;2023-03-31T10:24:21;12.88;93.85
67358;HTU21D;54240;51.096;5.878;2023-03-31T10:26:51;11.97;118.99
67358;HTU21D;54240;51.096;5.878;2023-03-31T10:29:37;12.89;118.99
67358;HTU21D;54240;51.096;5.878;2023-03-31T10:32:28;13.04;89.11
67358;HTU21D;54240;51.096;5.878;2023-03-31T10:35:04;13.07;65.10
67358;HTU21D;54240;51.096;5.878;2023-03-31T10:37:32;13.26;94.49
67358;HTU21D;54240;51.096;5.878;2023-03-31T10:40:04;13.53;50.98
67358;HTU21D;54240;51.096;5.878;2023-03-31T10:42:37;13.97;29.08
67358;HTU21D;54240;51.096;5.878;2023-03-31T10:45:23;14.53;-6.00
67358;HTU21D;54240;51.096;5.878;2023-03-31T10:47:59;14.63;-6.00
67358;HTU21D;54240;51.096;5.878;2023-03-31T10:50:36;14.56;-6.00
67358;HTU21D;54240;51.096;5.878;2023-03-31T10:53:20;14.28;-0.26
67358;HTU21D;54240;51.096;5.878;2023-03-31T10:55:58;14.23;20.73
67358;HTU21D;54240;51.096;5.878;2023-03-31T11:01:42;14.37;-6.00
67358;HTU21D;54240;51.096;5.878;2023-03-31T11:04:32;14.59;-6.00
67358;HTU21D;54240;51.096;5.878;2023-03-31T11:15:56;14.56;-6.00
67358;HTU21D;54240;51.096;5.878;2023-03-31T11:18:34;14.37;-6.00
67358;HTU21D;54240;51.096;5.878;2023-03-31T11:26:50;13.07;118.99
67358;HTU21D;54240;51.096;5.878;2023-03-31T11:29:38;12.94;118.99
67358;HTU21D;54240;51.096;5.878;2023-03-31T11:32:32;13.01;118.99
67358;HTU21D;54240;51.096;5.878;2023-03-31T11:35:36;13.24;118.99
67358;HTU21D;54240;51.096;5.878;2023-03-31T11:41:20;14.06;93.17
67358;HTU21D;54240;51.096;5.878;2023-03-31T11:44:01;14.35;116.21
67358;HTU21D;54240;51.096;5.878;2023-03-31T11:52:17;14.38;43.14
67358;HTU21D;54240;51.096;5.878;2023-03-31T11:54:54;14.40;-6.00
67358;HTU21D;54240;51.096;5.878;2023-03-31T12:00:16;14.85;-6.00
67358;HTU21D;54240;51.096;5.878;2023-03-31T12:02:53;15.02;-6.00
67358;HTU21D;54240;51.096;5.878;2023-03-31T12:05:26;14.94;-6.00
67358;HTU21D;54240;51.096;5.878;2023-03-31T12:08:01;15.15;-6.00
67358;HTU21D;54240;51.096;5.878;2023-03-31T12:10:52;14.83;-6.00
67358;HTU21D;54240;51.096;5.878;2023-03-31T12:13:35;14.70;-6.00
67358;HTU21D;54240;51.096;5.878;2023-03-31T12:19:14;14.75;-6.00
67358;HTU21D;54240;51.096;5.878;2023-03-31T12:21:49;14.65;-6.00
67358;HTU21D;54240;51.096;5.878;2023-03-31T12:24:15;14.65;-6.00
67358;HTU21D;54240;51.096;5.878;2023-03-31T12:27:12;14.69;-6.00
67358;HTU21D;54240;51.096;5.878;2023-03-31T12:32:22;14.77;-6.00
67358;HTU21D;54240;51.096;5.878;2023-03-31T12:34:58;14.48;-6.00
67358;HTU21D;54240;51.096;5.878;2023-03-31T12:38:40;14.57;-6.00
67358;HTU21D;54240;51.096;5.878;2023-03-31T12:41:34;14.57;-6.00
67358;HTU21D;54240;51.096;5.878;2023-03-31T12:49:28;14.70;-6.00
67358;HTU21D;54240;51.096;5.878;2023-03-31T12:52:10;14.86;-6.00
67358;HTU21D;54240;51.096;5.878;2023-03-31T12:57:23;14.99;-6.00
67358;HTU21D;54240;51.096;5.878;2023-03-31T13:00:20;14.77;-6.00
67358;HTU21D;54240;51.096;5.878;2023-03-31T13:02:47;14.64;-6.00
67358;HTU21D;54240;51.096;5.878;2023-03-31T13:08:04;14.69;-6.00
67358;HTU21D;54240;51.096;5.878;2023-03-31T13:10:32;14.81;-6.00
67358;HTU21D;54240;51.096;5.878;2023-03-31T13:13:13;14.83;-6.00
67358;HTU21D;54240;51.096;5.878;2023-03-31T13:15:50;14.80;-6.00
67358;HTU21D;54240;51.096;5.878;2023-03-31T13:18:19;14.85;-6.00
67358;HTU21D;54240;51.096;5.878;2023-03-31T13:20:46;14.92;-6.00
67358;HTU21D;54240;51.096;5.878;2023-03-31T13:23:24;15.00;-6.00
67358;HTU21D;54240;51.096;5.878;2023-03-31T13:25:52;15.14;-6.00
67358;HTU21D;54240;51.096;5.878;2023-03-31T13:47:48;12.35;118.99
67358;HTU21D;54240;51.096;5.878;2023-03-31T13:50:35;12.20;118.99
67358;HTU21D;54240;51.096;5.878;2023-03-31T13:53:34;11.60;118.99
67358;HTU21D;54240;51.096;5.878;2023-03-31T13:59:00;11.69;118.99
67358;HTU21D;54240;51.096;5.878;2023-03-31T14:07:07;11.59;118.99
67358;HTU21D;54240;51.096;5.878;2023-03-31T14:09:39;11.86;118.99
67358;HTU21D;54240;51.096;5.878;2023-03-31T14:12:37;12.07;118.99
67358;HTU21D;54240;51.096;5.878;2023-03-31T14:15:05;12.22;118.99
67358;HTU21D;54240;51.096;5.878;2023-03-31T14:17:39;12.33;118.99
67358;HTU21D;54240;51.096;5.878;2023-03-31T14:20:21;12.27;118.99
67358;HTU21D;54240;51.096;5.878;2023-03-31T14:23:15;12.36;118.99
67358;HTU21D;54240;51.096;5.878;2023-03-31T14:25:52;12.32;118.99
67358;HTU21D;54240;51.096;5.878;2023-03-31T14:31:32;12.02;118.99
67358;HTU21D;54240;51.096;5.878;2023-03-31T14:34:43;12.00;118.99
67358;HTU21D;54240;51.096;5.878;2023-03-31T14:37:16;12.33;118.99
67358;HTU21D;54240;51.096;5.878;2023-03-31T14:39:51;12.45;118.99
67358;HTU21D;54240;51.096;5.878;2023-03-31T14:42:37;12.66;118.99
67358;HTU21D;54240;51.096;5.878;2023-03-31T14:45:15;12.89;118.99
67358;HTU21D;54240;51.096;5.878;2023-03-31T14:47:41;12.78;118.99
67358;HTU21D;54240;51.096;5.878;2023-03-31T14:50:17;12.81;118.99
67358;HTU21D;54240;51.096;5.878;2023-03-31T14:52:50;12.85;118.99
67358;HTU21D;54240;51.096;5.878;2023-03-31T14:55:27;12.86;118.99
67358;HTU21D;54240;51.096;5.878;2023-03-31T14:57:57;12.85;118.99
67358;HTU21D;54240;51.096;5.878;2023-03-31T15:00:27;12.82;118.99
67358;HTU21D;54240;51.096;5.878;2023-03-31T15:02:57;12.90;118.99
67358;HTU21D;54240;51.096;5.878;2023-03-31T15:05:32;12.90;118.99
67358;HTU21D;54240;51.096;5.878;2023-03-31T15:08:02;12.84;118.99
67358;HTU21D;54240;51.096;5.878;2023-03-31T15:10:36;13.00;118.99
67358;HTU21D;54240;51.096;5.878;2023-03-31T15:13:11;12.96;88.08
67358;HTU21D;54240;51.096;5.878;2023-03-31T15:15:40;13.01;91.57
67358;HTU21D;54240;51.096;5.878;2023-03-31T15:18:08;12.81;85.84
67358;HTU21D;54240;51.096;5.878;2023-03-31T15:20:38;12.70;102.45
67358;HTU21D;54240;51.096;5.878;2023-03-31T15:26:10;12.31;118.99
67358;HTU21D;54240;51.096;5.878;2023-03-31T15:28:54;12.65;111.02
67358;HTU21D;54240;51.096;5.878;2023-03-31T15:31:22;12.67;109.24
67358;HTU21D;54240;51.096;5.878;2023-03-31T15:33:49;12.57;69.93
67358;HTU21D;54240;51.096;5.878;2023-03-31T15:36:15;12.51;105.83
67358;HTU21D;54240;51.096;5.878;2023-03-31T15:38:42;12.46;82.99
67358;HTU21D;54240;51.096;5.878;2023-03-31T15:41:16;12.36;118.99
67358;HTU21D;54240;51.096;5.878;2023-03-31T15:43:48;12.48;118.99
67358;HTU21D;54240;51.096;5.878;2023-03-31T15:46:46;12.40;118.99
67358;HTU21D;54240;51.096;5.878;2023-03-31T15:49:20;12.33;118.99
67358;HTU21D;54240;51.096;5.878;2023-03-31T15:51:46;12.18;118.99
67358;HTU21D;54240;51.096;5.878;2023-03-31T15:54:33;12.04;118.99
67358;HTU21D;54240;51.096;5.878;2023-03-31T15:57:00;11.89;118.99
67358;HTU21D;54240;51.096;5.878;2023-03-31T15:59:31;11.68;118.99
67358;HTU21D;54240;51.096;5.878;2023-03-31T16:02:14;11.37;118.99
67358;HTU21D;54240;51.096;5.878;2023-03-31T16:04:41;11.10;118.99
67358;HTU21D;54240;51.096;5.878;2023-03-31T16:12:47;10.83;118.99
67358;HTU21D;54240;51.096;5.878;2023-03-31T16:15:19;10.79;118.99
67358;HTU21D;54240;51.096;5.878;2023-03-31T16:17:52;10.81;118.99
67358;HTU21D;54240;51.096;5.878;2023-03-31T16:20:27;10.84;118.99
67358;HTU21D;54240;51.096;5.878;2023-03-31T16:22:58;10.81;118.99
67358;HTU21D;54240;51.096;5.878;2023-03-31T16:25:28;10.82;118.99
67358;HTU21D;54240;51.096;5.878;2023-03-31T16:27:58;10.74;118.99
67358;HTU21D;54240;51.096;5.878;2023-03-31T16:30:38;10.79;118.99
67358;HTU21D;54240;51.096;5.878;2023-03-31T16:33:07;10.84;118.99
67358;HTU21D;54240;51.096;5.878;2023-03-31T16:38:03;10.88;118.99
67358;HTU21D;54240;51.096;5.878;2023-03-31T16:40:35;10.93;118.99
67358;HTU21D;54240;51.096;5.878;2023-03-31T16:43:06;10.68;118.99
67358;HTU21D;54240;51.096;5.878;2023-03-31T16:45:32;10.73;118.99
67358;HTU21D;54240;51.096;5.878;2023-03-31T16:47:58;10.78;118.99
67358;HTU21D;54240;51.096;5.878;2023-03-31T16:50:24;10.82;118.99
67358;HTU21D;54240;51.096;5.878;2023-03-31T16:52:49;10.89;118.99
67358;HTU21D;54240;51.096;5.878;2023-03-31T16:55:16;10.85;118.99
67358;HTU21D;54240;51.096;5.878;2023-03-31T16:57:42;10.94;118.99
67358;HTU21D;54240;51.096;5.878;2023-03-31T17:00:08;10.87;118.99
67358;HTU21D;54240;51.096;5.878;2023-03-31T17:02:35;10.96;118.99
67358;HTU21D;54240;51.096;5.878;2023-03-31T17:05:01;10.94;118.99
67358;HTU21D;54240;51.096;5.878;2023-03-31T17:07:27;10.82;118.99
67358;HTU21D;54240;51.096;5.878;2023-03-31T17:09:53;10.82;118.99
67358;HTU21D;54240;51.096;5.878;2023-03-31T17:12:18;10.83;118.99
67358;HTU21D;54240;51.096;5.878;2023-03-31T17:14:44;10.92;118.99
67358;HTU21D;54240;51.096;5.878;2023-03-31T17:17:10;10.84;118.99
67358;HTU21D;54240;51.096;5.878;2023-03-31T17:19:36;10.90;118.99
67358;HTU21D;54240;51.096;5.878;2023-03-31T17:22:02;10.95;118.99
67358;HTU21D;54240;51.096;5.878;2023-03-31T17:24:28;11.12;118.99
67358;HTU21D;54240;51.096;5.878;2023-03-31T17:26:54;11.08;118.99
67358;HTU21D;54240;51.096;5.878;2023-03-31T17:29:20;11.19;118.99
67358;HTU21D;54240;51.096;5.878;2023-03-31T17:31:46;11.31;118.99
67358;HTU21D;54240;51.096;5.878;2023-03-31T17:34:12;11.41;118.99
67358;HTU21D;54240;51.096;5.878;2023-03-31T17:36:38;11.48;118.99
67358;HTU21D;54240;51.096;5.878;2023-03-31T17:39:04;11.60;118.99
67358;HTU21D;54240;51.096;5.878;2023-03-31T17:41:30;11.56;118.99
67358;HTU21D;54240;51.096;5.878;2023-03-31T17:43:56;11.63;118.99
67358;HTU21D;54240;51.096;5.878;2023-03-31T17:46:23;11.63;118.99
67358;HTU21D;54240;51.096;5.878;2023-03-31T17:48:49;11.60;118.99
67358;HTU21D;54240;51.096;5.878;2023-03-31T17:51:17;11.53;118.99
67358;HTU21D;54240;51.096;5.878;2023-03-31T17:53:45;11.56;118.99
67358;HTU21D;54240;51.096;5.878;2023-03-31T17:56:13;11.42;118.99